createdAt,value
2022-11-16T00:02:06.796Z,100448.75
2022-11-16T00:04:33.329Z,100446.50
2022-11-16T00:07:02.598Z,100442.16
2022-11-16T00:09:31.848Z,100433.59
2022-11-16T00:12:04.754Z,100430.25
2022-11-16T00:14:33.882Z,100435.00
2022-11-16T00:17:01.146Z,100439.19
2022-11-16T00:19:28.118Z,100433.31
2022-11-16T00:21:54.864Z,100446.84
2022-11-16T00:24:23.256Z,100442.03
2022-11-16T00:26:50.648Z,100437.88
2022-11-16T00:29:23.041Z,100442.94
2022-11-16T00:31:50.044Z,100433.50
2022-11-16T00:34:16.942Z,100436.47
2022-11-16T00:36:43.808Z,100438.47
2022-11-16T00:39:12.416Z,100437.03
2022-11-16T00:41:39.148Z,100433.94
2022-11-16T00:44:05.609Z,100438.75
2022-11-16T00:46:32.126Z,100434.81
2022-11-16T00:48:58.539Z,100436.63
2022-11-16T00:51:24.960Z,100430.25
2022-11-16T00:53:51.476Z,100429.22
2022-11-16T00:56:17.971Z,100427.53
2022-11-16T00:58:44.374Z,100435.22
2022-11-16T01:01:12.210Z,100428.75
2022-11-16T01:03:39.380Z,100427.06
2022-11-16T01:06:08.604Z,100429.75
2022-11-16T01:08:38.259Z,100433.03
2022-11-16T01:11:24.820Z,100430.72
2022-11-16T01:13:51.253Z,100436.22
2022-11-16T01:16:20.142Z,100431.22
2022-11-16T01:18:51.787Z,100427.09
2022-11-16T01:21:19.287Z,100434.41
2022-11-16T01:23:45.791Z,100431.09
2022-11-16T01:26:12.268Z,100443.63
2022-11-16T01:28:40.576Z,100440.47
2022-11-16T01:31:08.950Z,100439.69
2022-11-16T01:33:37.048Z,100434.34
2022-11-16T01:36:10.606Z,100429.25
2022-11-16T01:38:37.351Z,100416.16
2022-11-16T01:41:04.087Z,100412.78
2022-11-16T01:43:50.113Z,100401.19
2022-11-16T01:46:16.552Z,100391.38
2022-11-16T01:48:43.200Z,100391.69
2022-11-16T01:51:09.939Z,100385.56
2022-11-16T01:53:37.480Z,100383.34
2022-11-16T01:56:05.091Z,100369.75
2022-11-16T01:58:53.957Z,100368.06
2022-11-16T02:01:24.258Z,100372.47
2022-11-16T02:03:55.018Z,100366.06
2022-11-16T02:06:27.698Z,100361.38
2022-11-16T02:09:43.339Z,100366.66
2022-11-16T02:12:37.969Z,100357.44
2022-11-16T02:15:25.562Z,100362.69
2022-11-16T02:18:46.880Z,100359.34
2022-11-16T02:21:38.953Z,100363.47
2022-11-16T02:24:31.307Z,100353.78
2022-11-16T02:27:29.010Z,100349.00
2022-11-16T02:29:56.606Z,100346.22
2022-11-16T02:32:34.095Z,100344.56
2022-11-16T02:35:03.471Z,100340.13
2022-11-16T02:37:34.655Z,100350.34
2022-11-16T02:40:03.026Z,100336.78
2022-11-16T02:42:34.878Z,100346.72
2022-11-16T02:45:07.949Z,100343.38
2022-11-16T02:47:36.913Z,100339.09
2022-11-16T02:50:18.756Z,100345.78
2022-11-16T02:52:45.641Z,100344.84
2022-11-16T02:55:12.697Z,100340.97
2022-11-16T02:58:00.813Z,100332.06
2022-11-16T03:00:55.271Z,100338.13
2022-11-16T03:03:41.253Z,100328.16
2022-11-16T03:06:14.013Z,100328.72
2022-11-16T03:09:02.170Z,100325.47
2022-11-16T03:11:52.533Z,100328.88
2022-11-16T03:14:22.755Z,100339.69
2022-11-16T03:16:55.699Z,100333.16
2022-11-16T03:19:37.323Z,100334.84
2022-11-16T03:22:12.390Z,100332.88
2022-11-16T03:24:39.614Z,100342.56
2022-11-16T03:27:27.397Z,100345.09
2022-11-16T03:30:06.033Z,100339.56
2022-11-16T03:32:50.868Z,100338.47
2022-11-16T03:35:24.745Z,100335.72
2022-11-16T03:37:52.777Z,100327.09
2022-11-16T03:40:22.267Z,100313.91
2022-11-16T03:42:50.528Z,100316.34
2022-11-16T03:45:18.842Z,100308.03
2022-11-16T03:47:46.001Z,100297.47
2022-11-16T03:50:12.715Z,100305.25
2022-11-16T03:52:40.027Z,100303.00
2022-11-16T03:55:07.327Z,100303.00
2022-11-16T03:57:34.726Z,100297.28
2022-11-16T04:00:01.291Z,100298.28
2022-11-16T04:02:29.335Z,100291.91
2022-11-16T04:05:16.532Z,100291.91
2022-11-16T04:08:02.199Z,100293.75
2022-11-16T04:10:47.325Z,100297.41
2022-11-16T04:13:33.931Z,100303.13
2022-11-16T04:16:19.257Z,100309.31
2022-11-16T04:19:04.524Z,100299.06
2022-11-16T04:21:57.805Z,100298.47
2022-11-16T04:24:32.109Z,100294.91
2022-11-16T04:27:22.329Z,100300.19
2022-11-16T04:29:49.069Z,100291.84
2022-11-16T04:32:34.693Z,100292.63
2022-11-16T04:35:19.708Z,100289.66
2022-11-16T04:37:49.101Z,100294.63
2022-11-16T04:40:22.940Z,100280.41
2022-11-16T04:42:54.635Z,100289.66
2022-11-16T04:45:41.420Z,100283.25
2022-11-16T04:48:10.678Z,100283.53
2022-11-16T04:50:38.765Z,100284.72
2022-11-16T04:53:07.400Z,100285.00
2022-11-16T04:55:41.717Z,100284.81
2022-11-16T04:58:08.372Z,100289.28
2022-11-16T05:00:34.932Z,100293.16
2022-11-16T05:03:04.295Z,100285.09
2022-11-16T05:05:30.851Z,100291.31
2022-11-16T05:07:58.923Z,100288.31
2022-11-16T05:10:28.722Z,100285.84
2022-11-16T05:12:55.732Z,100282.81
2022-11-16T05:15:23.256Z,100285.88
2022-11-16T05:17:51.174Z,100293.97
2022-11-16T05:20:40.174Z,100290.38
2022-11-16T05:23:27.405Z,100304.56
2022-11-16T05:25:54.857Z,100300.19
2022-11-16T05:28:22.000Z,100306.22
2022-11-16T05:30:48.552Z,100299.59
2022-11-16T05:33:19.372Z,100293.81
2022-11-16T05:35:46.021Z,100296.28
2022-11-16T05:38:13.774Z,100302.38
2022-11-16T05:40:44.325Z,100297.44
2022-11-16T05:43:10.770Z,100297.16
2022-11-16T05:46:28.213Z,100308.03
2022-11-16T05:48:57.356Z,100313.28
2022-11-16T05:51:24.691Z,100310.00
2022-11-16T05:53:52.781Z,100305.25
2022-11-16T05:56:22.190Z,100307.81
2022-11-16T05:58:49.430Z,100319.75
2022-11-16T06:01:15.962Z,100309.50
2022-11-16T06:03:42.696Z,100319.03
2022-11-16T06:06:09.199Z,100323.16
2022-11-16T06:08:36.662Z,100319.31
2022-11-16T06:11:08.225Z,100318.22
2022-11-16T06:13:36.529Z,100313.75
2022-11-16T06:16:04.085Z,100316.81
2022-11-16T06:18:32.570Z,100317.72
2022-11-16T06:20:59.245Z,100315.72
2022-11-16T06:23:25.753Z,100321.81
2022-11-16T06:25:55.058Z,100317.16
2022-11-16T06:28:24.103Z,100321.56
2022-11-16T06:30:50.947Z,100317.94
2022-11-16T06:33:18.028Z,100320.44
2022-11-16T06:35:45.128Z,100319.94
2022-11-16T06:38:18.683Z,100319.38
2022-11-16T06:40:52.340Z,100332.69
2022-11-16T06:43:20.220Z,100322.19
2022-11-16T06:45:51.723Z,100323.56
2022-11-16T06:48:19.176Z,100317.75
2022-11-16T06:50:50.750Z,100321.66
2022-11-16T06:53:19.252Z,100328.28
2022-11-16T06:55:47.433Z,100326.66
2022-11-16T06:58:13.988Z,100312.50
2022-11-16T07:00:41.822Z,100313.34
2022-11-16T07:03:09.720Z,100311.38
2022-11-16T07:05:40.020Z,100311.66
2022-11-16T07:08:09.934Z,100328.94
2022-11-16T07:10:38.033Z,100321.16
2022-11-16T07:13:06.134Z,100316.19
2022-11-16T07:15:35.239Z,100320.06
2022-11-16T07:18:07.293Z,100327.59
2022-11-16T07:20:37.529Z,100326.47
2022-11-16T07:23:04.239Z,100332.88
2022-11-16T07:25:33.336Z,100332.63
2022-11-16T07:28:00.624Z,100333.44
2022-11-16T07:30:27.096Z,100332.31
2022-11-16T07:33:08.841Z,100333.44
2022-11-16T07:36:08.061Z,100342.91
2022-11-16T07:38:34.848Z,100338.47
2022-11-16T07:41:06.261Z,100343.75
2022-11-16T07:43:36.012Z,100338.22
2022-11-16T07:49:07.050Z,100332.66
2022-11-16T07:51:47.953Z,100337.72
2022-11-16T07:54:33.790Z,100338.50
2022-11-16T07:57:00.245Z,100334.91
2022-11-16T07:59:28.343Z,100340.72
2022-11-16T08:01:59.153Z,100334.91
2022-11-16T08:04:26.426Z,100328.13
2022-11-16T08:06:52.984Z,100329.25
2022-11-16T08:09:20.928Z,100322.28
2022-11-16T08:11:48.845Z,100328.69
2022-11-16T08:14:15.688Z,100340.09
2022-11-16T08:16:42.408Z,100329.22
2022-11-16T08:19:13.054Z,100318.66
2022-11-16T08:21:39.500Z,100311.44
2022-11-16T08:24:06.971Z,100315.88
2022-11-16T08:26:37.503Z,100309.75
2022-11-16T08:29:08.498Z,100303.09
2022-11-16T08:31:38.463Z,100302.25
2022-11-16T08:34:08.840Z,100294.19
2022-11-16T08:36:38.910Z,100293.91
2022-11-16T08:39:05.794Z,100296.13
2022-11-16T08:41:35.737Z,100297.78
2022-11-16T08:44:02.269Z,100295.56
2022-11-16T08:46:30.418Z,100295.81
2022-11-16T08:49:09.731Z,100288.63
2022-11-16T08:51:36.152Z,100292.22
2022-11-16T08:54:05.260Z,100282.78
2022-11-16T08:56:33.384Z,100281.94
2022-11-16T08:58:59.781Z,100276.13
2022-11-16T09:01:29.833Z,100276.91
2022-11-16T09:03:56.671Z,100279.16
2022-11-16T09:06:25.295Z,100277.22
2022-11-16T09:08:52.122Z,100268.56
2022-11-16T09:11:21.674Z,100261.06
2022-11-16T09:13:50.602Z,100268.34
2022-11-16T09:16:17.940Z,100271.41
2022-11-16T09:18:47.042Z,100269.19
2022-11-16T09:21:18.895Z,100278.63
2022-11-16T09:23:46.258Z,100276.41
2022-11-16T09:26:13.730Z,100266.97
2022-11-16T09:28:40.243Z,100257.25
2022-11-16T09:31:06.669Z,100267.81
2022-11-16T09:33:34.179Z,100267.25
2022-11-16T09:36:07.089Z,100271.16
2022-11-16T09:38:54.423Z,100257.78
2022-11-16T09:41:51.105Z,100257.25
2022-11-16T09:44:55.940Z,100249.75
2022-11-16T09:47:38.848Z,100254.72
2022-11-16T09:50:07.133Z,100246.97
2022-11-16T09:52:43.156Z,100240.56
2022-11-16T09:55:36.702Z,100249.22
2022-11-16T09:58:11.711Z,100240.28
2022-11-16T10:00:43.708Z,100250.28
2022-11-16T10:03:13.450Z,100252.28
2022-11-16T10:05:53.603Z,100247.53
2022-11-16T10:08:32.959Z,100251.16
2022-11-16T10:11:09.999Z,100253.38
2022-11-16T10:14:04.013Z,100257.31
2022-11-16T10:16:56.928Z,100251.19
2022-11-16T10:19:42.037Z,100256.19
2022-11-16T10:22:29.906Z,100252.03
2022-11-16T10:24:58.614Z,100243.97
2022-11-16T10:27:44.701Z,100243.97
2022-11-16T10:30:21.830Z,100245.91
2022-11-16T10:33:08.083Z,100249.22
2022-11-16T10:35:41.499Z,100250.59
2022-11-16T10:38:14.078Z,100250.59
2022-11-16T10:40:41.298Z,100243.69
2022-11-16T10:43:14.341Z,100243.38
2022-11-16T10:45:50.986Z,100248.94
2022-11-16T10:48:37.206Z,100244.75
2022-11-16T10:51:05.090Z,100240.88
2022-11-16T10:53:40.557Z,100245.03
2022-11-16T10:56:27.700Z,100235.84
2022-11-16T10:59:06.351Z,100240.03
2022-11-16T11:01:39.448Z,100236.97
2022-11-16T11:04:29.359Z,100234.16
2022-11-16T11:07:00.855Z,100230.84
2022-11-16T11:09:30.980Z,100229.13
2022-11-16T11:12:37.884Z,100218.56
2022-11-16T11:15:07.336Z,100221.34
2022-11-16T11:17:36.002Z,100221.91
2022-11-16T11:20:05.506Z,100223.88
2022-11-16T11:22:34.971Z,100221.13
2022-11-16T11:25:03.498Z,100218.34
2022-11-16T11:27:34.673Z,100223.59
2022-11-16T11:30:01.691Z,100225.00
2022-11-16T11:32:34.475Z,100223.34
2022-11-16T11:35:02.855Z,100226.16
2022-11-16T11:37:33.945Z,100224.47
2022-11-16T11:40:09.268Z,100221.69
2022-11-16T11:42:41.239Z,100229.72
2022-11-16T11:45:13.815Z,100227.78
2022-11-16T11:47:58.483Z,100230.84
2022-11-16T11:50:52.819Z,100237.53
2022-11-16T11:53:38.556Z,100233.91
2022-11-16T11:56:05.520Z,100237.25
2022-11-16T11:58:36.979Z,100235.88
2022-11-16T12:01:27.874Z,100238.41
2022-11-16T12:04:32.532Z,100231.72
2022-11-16T12:07:06.046Z,100235.59
2022-11-16T12:09:42.738Z,100234.47
2022-11-16T12:12:15.171Z,100227.28
2022-11-16T12:15:02.268Z,100232.03
2022-11-16T12:17:48.420Z,100227.25
2022-11-16T12:20:42.008Z,100226.16
2022-11-16T12:23:41.720Z,100222.25
2022-11-16T12:26:35.657Z,100233.66
2022-11-16T12:29:23.350Z,100215.03
2022-11-16T12:32:22.924Z,100223.06
2022-11-16T12:35:11.441Z,100226.69
2022-11-16T12:38:03.403Z,100225.03
2022-11-16T12:40:35.536Z,100215.88
2022-11-16T12:43:21.058Z,100225.56
2022-11-16T12:46:01.489Z,100219.75
2022-11-16T12:48:40.970Z,100222.25
2022-11-16T12:51:38.126Z,100221.16
2022-11-16T12:54:28.886Z,100224.50
2022-11-16T12:57:04.731Z,100226.72
2022-11-16T13:00:07.475Z,100223.66
2022-11-16T13:02:50.098Z,100227.28
2022-11-16T13:05:21.546Z,100224.50
2022-11-16T13:07:57.405Z,100215.88
2022-11-16T13:10:33.457Z,100219.50
2022-11-16T13:15:51.827Z,100217.28
2022-11-16T13:18:21.309Z,100213.69
2022-11-16T13:20:56.065Z,100216.69
2022-11-16T13:23:38.330Z,100206.16
2022-11-16T13:26:19.335Z,100200.03
2022-11-16T13:28:59.187Z,100213.09
2022-11-16T13:31:56.323Z,100207.28
2022-11-16T13:34:26.615Z,100210.28
2022-11-16T13:36:53.117Z,100210.31
2022-11-16T13:39:22.892Z,100201.72
2022-11-16T13:42:07.310Z,100205.31
2022-11-16T13:44:34.594Z,100207.81
2022-11-16T13:47:04.825Z,100210.91
2022-11-16T13:49:50.224Z,100206.75
2022-11-16T13:52:23.792Z,100210.91
2022-11-16T13:54:55.380Z,100211.19
2022-11-16T13:57:34.389Z,100207.28
2022-11-16T14:00:00.717Z,100208.13
2022-11-16T14:02:42.241Z,100203.97
2022-11-16T14:05:16.220Z,100204.78
2022-11-16T14:07:51.733Z,100203.38
2022-11-16T14:10:33.104Z,100201.44
2022-11-16T14:13:01.071Z,100197.56
2022-11-16T14:15:38.602Z,100195.59
2022-11-16T14:18:08.563Z,100192.84
2022-11-16T14:20:37.754Z,100196.16
2022-11-16T14:23:14.129Z,100190.88
2022-11-16T14:25:49.077Z,100195.88
2022-11-16T14:28:24.263Z,100197.28
2022-11-16T14:30:53.659Z,100197.53
2022-11-16T14:33:30.527Z,100199.22
2022-11-16T14:35:57.419Z,100197.28
2022-11-16T14:38:32.231Z,100195.34
2022-11-16T14:41:01.261Z,100201.72
2022-11-16T14:43:33.099Z,100198.94
2022-11-16T14:46:09.354Z,100200.91
2022-11-16T14:48:44.132Z,100193.66
2022-11-16T14:51:15.116Z,100193.94
2022-11-16T14:53:50.444Z,100193.38
2022-11-16T14:56:18.230Z,100186.72
2022-11-16T14:58:52.942Z,100190.59
2022-11-16T15:01:22.559Z,100182.25
2022-11-16T15:04:03.912Z,100178.94
2022-11-16T15:06:43.577Z,100182.25
2022-11-16T15:09:18.086Z,100186.69
2022-11-16T15:12:06.551Z,100186.97
2022-11-16T15:14:37.163Z,100183.91
2022-11-16T15:17:03.615Z,100185.88
2022-11-16T15:19:30.476Z,100182.25
2022-11-16T15:21:59.687Z,100183.09
2022-11-16T15:24:34.435Z,100182.50
2022-11-16T15:27:26.247Z,100185.56
2022-11-16T15:29:52.659Z,100182.78
2022-11-16T15:32:19.088Z,100180.81
2022-11-16T15:34:53.069Z,100181.38
2022-11-16T15:37:30.142Z,100173.59
2022-11-16T15:40:02.481Z,100176.63
2022-11-16T15:42:29.340Z,100182.47
2022-11-16T15:44:56.012Z,100179.94
2022-11-16T15:47:23.542Z,100181.91
2022-11-16T15:49:52.870Z,100184.41
2022-11-16T15:52:45.461Z,100180.50
2022-11-16T15:55:33.013Z,100180.47
2022-11-16T15:57:59.422Z,100174.66
2022-11-16T16:00:26.953Z,100169.09
2022-11-16T16:02:59.564Z,100173.00
2022-11-16T16:05:37.762Z,100177.16
2022-11-16T16:08:05.652Z,100175.44
2022-11-16T16:10:32.145Z,100174.94
2022-11-16T16:13:00.990Z,100181.63
2022-11-16T16:15:30.036Z,100173.53
2022-11-16T16:17:58.668Z,100177.69
2022-11-16T16:20:31.762Z,100174.06
2022-11-16T16:23:11.226Z,100179.94
2022-11-16T16:25:38.134Z,100175.44
2022-11-16T16:28:04.694Z,100183.25
2022-11-16T16:30:33.154Z,100177.94
2022-11-16T16:32:59.673Z,100183.25
2022-11-16T16:35:26.491Z,100182.97
2022-11-16T16:38:01.216Z,100184.66
2022-11-16T16:40:28.723Z,100183.53
2022-11-16T16:42:56.264Z,100180.72
2022-11-16T16:45:39.861Z,100187.97
2022-11-16T16:48:06.320Z,100187.41
2022-11-16T16:50:32.792Z,100179.94
2022-11-16T16:52:59.182Z,100181.00
2022-11-16T16:55:25.936Z,100184.09
2022-11-16T16:57:53.933Z,100184.66
2022-11-16T17:00:20.358Z,100189.09
2022-11-16T17:02:46.743Z,100189.09
2022-11-16T17:05:13.158Z,100194.38
2022-11-16T17:07:39.720Z,100194.09
2022-11-16T17:10:09.681Z,100194.91
2022-11-16T17:12:36.098Z,100184.31
2022-11-16T17:15:02.686Z,100182.41
2022-11-16T17:17:29.066Z,100184.91
2022-11-16T17:19:55.690Z,100178.22
2022-11-16T17:22:22.634Z,100173.81
2022-11-16T17:24:49.253Z,100171.28
2022-11-16T17:27:15.648Z,100181.03
2022-11-16T17:29:42.036Z,100190.47
2022-11-16T17:32:08.444Z,100193.50
2022-11-16T17:34:34.914Z,100193.00
2022-11-16T17:37:01.398Z,100188.25
2022-11-16T17:39:27.855Z,100197.72
2022-11-16T17:41:54.272Z,100189.97
2022-11-16T17:44:22.075Z,100189.97
2022-11-16T17:46:48.608Z,100192.16
2022-11-16T17:49:15.053Z,100190.78
2022-11-16T17:51:41.505Z,100197.47
2022-11-16T17:54:07.915Z,100196.63
2022-11-16T17:56:34.332Z,100203.31
2022-11-16T17:59:00.852Z,100192.75
2022-11-16T18:01:28.404Z,100199.13
2022-11-16T18:03:55.137Z,100198.31
2022-11-16T18:06:23.425Z,100200.25
2022-11-16T18:08:49.822Z,100191.38
2022-11-16T18:11:20.034Z,100191.38
2022-11-16T18:13:47.223Z,100200.81
2022-11-16T18:16:16.975Z,100195.56
2022-11-16T18:18:44.542Z,100193.56
2022-11-16T18:21:17.224Z,100193.28
2022-11-16T18:23:46.700Z,100189.94
2022-11-16T18:26:16.572Z,100192.44
2022-11-16T18:28:46.517Z,100184.06
2022-11-16T18:31:17.914Z,100186.00
2022-11-16T18:33:44.729Z,100182.72
2022-11-16T18:36:12.338Z,100185.69
2022-11-16T18:38:39.247Z,100181.00
2022-11-16T18:41:06.832Z,100177.91
2022-11-16T18:43:34.640Z,100181.22
2022-11-16T18:46:01.318Z,100173.47
2022-11-16T18:48:27.852Z,100178.47
2022-11-16T18:50:58.311Z,100182.69
2022-11-16T18:53:25.118Z,100186.84
2022-11-16T18:55:57.483Z,100184.34
2022-11-16T18:58:49.366Z,100179.34
2022-11-16T19:01:13.614Z,100177.06
2022-11-16T19:03:40.139Z,100179.06
2022-11-16T19:06:08.567Z,100179.91
2022-11-16T19:08:36.653Z,100185.47
2022-11-16T19:11:11.539Z,100177.94
2022-11-16T19:13:38.900Z,100176.28
2022-11-16T19:16:06.160Z,100175.44
2022-11-16T19:18:32.652Z,100169.88
2022-11-16T19:21:10.137Z,100177.38
2022-11-16T19:23:42.782Z,100181.84
2022-11-16T19:26:10.220Z,100184.34
2022-11-16T19:28:38.177Z,100184.66
2022-11-16T19:31:25.727Z,100179.94
2022-11-16T19:33:57.070Z,100188.53
2022-11-16T19:36:25.278Z,100179.34
2022-11-16T19:38:52.564Z,100184.31
2022-11-16T19:41:22.900Z,100179.06
2022-11-16T19:43:57.324Z,100187.38
2022-11-16T19:46:24.890Z,100192.94
2022-11-16T19:48:51.865Z,100194.38
2022-11-16T19:51:24.115Z,100200.19
2022-11-16T19:53:53.745Z,100196.56
2022-11-16T19:56:22.395Z,100192.09
2022-11-16T19:58:50.028Z,100203.78
2022-11-16T20:01:26.224Z,100203.22
2022-11-16T20:03:53.192Z,100211.03
2022-11-16T20:06:22.507Z,100205.75
2022-11-16T20:08:54.256Z,100208.81
2022-11-16T20:11:23.364Z,100213.28
2022-11-16T20:13:51.808Z,100217.97
2022-11-16T20:16:23.550Z,100214.66
2022-11-16T20:18:51.791Z,100216.56
2022-11-16T20:21:26.425Z,100202.72
2022-11-16T20:23:53.855Z,100216.56
2022-11-16T20:26:21.381Z,100210.50
2022-11-16T20:28:50.994Z,100218.28
2022-11-16T20:31:19.139Z,100218.25
2022-11-16T20:33:53.370Z,100220.75
2022-11-16T20:36:20.691Z,100216.59
2022-11-16T20:38:47.088Z,100219.06
2022-11-16T20:41:16.376Z,100210.44
2022-11-16T20:43:43.725Z,100211.31
2022-11-16T20:46:15.090Z,100212.97
2022-11-16T20:48:44.837Z,100219.63
2022-11-16T20:51:19.335Z,100215.44
2022-11-16T20:53:47.700Z,100217.13
2022-11-16T20:56:15.636Z,100222.38
2022-11-16T20:58:42.494Z,100222.94
2022-11-16T21:01:12.651Z,100213.81
2022-11-16T21:03:39.846Z,100224.59
2022-11-16T21:06:09.595Z,100218.19
2022-11-16T21:08:37.655Z,100217.13
2022-11-16T21:11:15.702Z,100228.50
2022-11-16T21:14:03.058Z,100228.78
2022-11-16T21:16:29.894Z,100224.28
2022-11-16T21:18:56.331Z,100224.84
2022-11-16T21:21:22.912Z,100218.16
2022-11-16T21:23:52.331Z,100220.38
2022-11-16T21:26:21.625Z,100212.81
2022-11-16T21:28:48.131Z,100213.09
2022-11-16T21:31:20.344Z,100205.31
2022-11-16T21:33:47.431Z,100207.75
2022-11-16T21:36:16.560Z,100214.97
2022-11-16T21:38:43.017Z,100214.41
2022-11-16T21:41:14.051Z,100210.75
2022-11-16T21:43:40.753Z,100226.31
2022-11-16T21:46:10.628Z,100222.66
2022-11-16T21:48:37.428Z,100219.63
2022-11-16T21:51:06.101Z,100224.94
2022-11-16T21:53:33.513Z,100217.69
2022-11-16T21:56:00.365Z,100230.72
2022-11-16T21:58:27.278Z,100219.34
2022-11-16T22:00:55.823Z,100219.34
2022-11-16T22:03:24.424Z,100221.28
2022-11-16T22:06:16.467Z,100220.66
2022-11-16T22:08:43.691Z,100213.41
2022-11-16T22:11:10.962Z,100219.75
2022-11-16T22:13:38.459Z,100218.97
2022-11-16T22:16:09.561Z,100222.03
2022-11-16T22:18:36.744Z,100219.25
2022-11-16T22:21:03.889Z,100221.41
2022-11-16T22:23:30.964Z,100219.75
2022-11-16T22:26:05.776Z,100218.31
2022-11-16T22:28:33.177Z,100216.91
2022-11-16T22:31:04.955Z,100213.53
2022-11-16T22:33:32.327Z,100211.28
2022-11-16T22:35:59.143Z,100204.34
2022-11-16T22:38:26.038Z,100203.22
2022-11-16T22:40:53.776Z,100208.00
2022-11-16T22:43:21.578Z,100200.97
2022-11-16T22:45:48.047Z,100202.06
2022-11-16T22:48:14.827Z,100208.47
2022-11-16T22:50:42.064Z,100198.78
2022-11-16T22:53:09.462Z,100202.94
2022-11-16T22:55:37.676Z,100204.59
2022-11-16T22:58:05.414Z,100197.63
2022-11-16T23:00:34.202Z,100200.97
2022-11-16T23:03:04.228Z,100195.97
2022-11-16T23:05:30.650Z,100190.97
2022-11-16T23:07:57.279Z,100198.94
2022-11-16T23:10:23.676Z,100199.28
2022-11-16T23:13:08.494Z,100195.94
2022-11-16T23:15:49.941Z,100208.63
2022-11-16T23:18:16.522Z,100193.09
2022-11-16T23:21:01.392Z,100184.00
2022-11-16T23:23:46.289Z,100177.09
2022-11-16T23:26:41.193Z,100178.75
2022-11-16T23:29:09.605Z,100172.31
2022-11-16T23:31:37.079Z,100171.09
2022-11-16T23:34:04.223Z,100166.34
2022-11-16T23:36:30.635Z,100163.03
2022-11-16T23:38:57.013Z,100166.44
2022-11-16T23:41:41.915Z,100161.97
2022-11-16T23:44:08.311Z,100162.22
2022-11-16T23:46:34.696Z,100156.66
2022-11-16T23:49:01.437Z,100159.69
2022-11-16T23:51:27.889Z,100154.13
2022-11-16T23:53:54.709Z,100149.38
2022-11-16T23:56:21.650Z,100140.16
2022-11-16T23:58:48.287Z,100144.84
